createdAt,value
2023-05-08T00:02:24.892Z,15.40
2023-05-08T00:04:56.824Z,14.80
2023-05-08T00:07:28.750Z,14.20
2023-05-08T00:10:01.220Z,15.30
2023-05-08T00:12:32.886Z,14.70
2023-05-08T00:15:05.588Z,15.30
2023-05-08T00:20:09.753Z,14.50
2023-05-08T00:22:41.865Z,14.50
2023-05-08T00:25:13.692Z,14.60
2023-05-08T00:27:45.331Z,13.90
2023-05-08T00:30:17.594Z,14.90
2023-05-08T00:32:49.462Z,14.20
2023-05-08T00:35:21.490Z,14.50
2023-05-08T00:37:53.203Z,14.50
2023-05-08T00:40:25.336Z,15.40
2023-05-08T00:42:57.120Z,16.00
2023-05-08T00:45:33.938Z,14.60
2023-05-08T00:48:07.995Z,16.10
2023-05-08T00:50:40.125Z,15.10
2023-05-08T00:53:12.814Z,15.60
2023-05-08T00:58:16.553Z,15.40
2023-05-08T01:00:50.293Z,16.20
2023-05-08T01:03:23.901Z,16.30
2023-05-08T01:05:56.919Z,16.80
2023-05-08T01:11:18.929Z,15.80
2023-05-08T01:14:08.885Z,14.90
2023-05-08T01:16:45.192Z,16.30
2023-05-08T01:19:44.520Z,16.10
2023-05-08T01:22:29.398Z,15.90
2023-05-08T01:25:38.634Z,17.40
2023-05-08T01:28:32.345Z,16.30
2023-05-08T01:31:17.676Z,16.30
2023-05-08T01:33:56.762Z,15.50
2023-05-08T01:36:41.030Z,16.30
2023-05-08T01:39:20.037Z,16.10
2023-05-08T01:42:01.726Z,17.40
2023-05-08T01:44:38.599Z,17.30
2023-05-08T01:47:13.227Z,15.70
2023-05-08T01:49:50.302Z,17.30
2023-05-08T01:52:29.007Z,16.70
2023-05-08T01:55:04.615Z,17.60
2023-05-08T01:57:39.348Z,16.30
2023-05-08T02:00:13.795Z,17.20
2023-05-08T02:02:48.538Z,16.70
2023-05-08T02:05:22.292Z,18.10
2023-05-08T02:07:55.546Z,16.30
2023-05-08T02:10:31.227Z,15.50
2023-05-08T02:13:05.366Z,15.80
2023-05-08T02:15:38.730Z,15.60
2023-05-08T02:18:13.012Z,16.40
2023-05-08T02:20:45.307Z,15.20
2023-05-08T02:23:19.000Z,15.50
2023-05-08T02:25:52.459Z,16.80
2023-05-08T02:28:25.745Z,15.60
2023-05-08T02:30:59.610Z,13.90
2023-05-08T02:33:33.966Z,14.90
2023-05-08T02:36:08.367Z,15.90
2023-05-08T02:38:42.763Z,14.80
2023-05-08T02:41:18.560Z,13.10
2023-05-08T02:43:52.675Z,13.90
2023-05-08T02:46:31.019Z,13.50
2023-05-08T02:49:06.450Z,13.40
2023-05-08T02:51:50.198Z,13.50
2023-05-08T02:54:30.222Z,13.40
2023-05-08T02:57:07.402Z,14.10
2023-05-08T02:59:45.734Z,13.60
2023-05-08T03:02:29.657Z,13.30
2023-05-08T03:05:09.258Z,13.40
2023-05-08T03:07:45.062Z,13.20
2023-05-08T03:10:19.695Z,13.30
2023-05-08T03:12:54.567Z,13.10
2023-05-08T03:15:32.964Z,14.00
2023-05-08T03:18:08.882Z,14.30
2023-05-08T03:20:44.614Z,12.70
2023-05-08T03:23:19.466Z,14.20
2023-05-08T03:25:52.440Z,12.50
2023-05-08T03:28:25.438Z,14.40
2023-05-08T03:30:59.964Z,14.80
2023-05-08T03:33:33.768Z,13.70
2023-05-08T03:36:07.105Z,14.10
2023-05-08T03:38:39.157Z,14.70
2023-05-08T03:41:12.685Z,15.50
2023-05-08T03:43:45.320Z,10.00
2023-05-08T03:46:20.248Z,14.80
2023-05-08T03:48:54.207Z,13.80
2023-05-08T03:51:27.907Z,14.80
2023-05-08T03:53:59.667Z,15.00
2023-05-08T03:56:31.969Z,14.30
2023-05-08T03:59:15.330Z,14.90
2023-05-08T04:01:56.207Z,13.60
2023-05-08T04:04:39.780Z,13.80
2023-05-08T04:07:17.016Z,14.00
2023-05-08T04:10:01.204Z,14.10
2023-05-08T04:15:12.864Z,14.10
2023-05-08T04:17:48.853Z,14.20
2023-05-08T04:20:24.146Z,15.10
2023-05-08T04:22:58.106Z,13.90
2023-05-08T04:25:31.878Z,14.20
2023-05-08T04:28:04.166Z,13.90
2023-05-08T04:33:08.560Z,14.10
2023-05-08T04:35:41.170Z,13.60
2023-05-08T04:38:13.154Z,14.00
2023-05-08T04:40:45.681Z,13.50
2023-05-08T04:43:17.607Z,15.20
2023-05-08T04:45:49.639Z,15.00
2023-05-08T04:48:21.434Z,11.80
2023-05-08T04:50:53.358Z,15.10
2023-05-08T04:53:25.607Z,13.60
2023-05-08T04:55:59.245Z,14.10
2023-05-08T04:58:31.341Z,13.40
2023-05-08T05:01:06.342Z,13.50
2023-05-08T05:03:38.607Z,12.70
2023-05-08T05:06:10.744Z,13.10
2023-05-08T05:11:14.313Z,12.10
2023-05-08T05:13:46.257Z,13.50
2023-05-08T05:16:18.538Z,11.80
2023-05-08T05:18:50.993Z,13.20
2023-05-08T05:21:23.112Z,13.40
2023-05-08T05:23:55.056Z,11.30
2023-05-08T05:26:26.804Z,11.40
2023-05-08T05:28:59.135Z,11.20
2023-05-08T05:31:31.949Z,10.10
2023-05-08T05:36:34.876Z,9.50
2023-05-08T05:39:06.947Z,10.70
2023-05-08T05:41:39.405Z,10.60
2023-05-08T05:44:11.234Z,11.30
2023-05-08T05:46:44.478Z,10.10
2023-05-08T05:49:16.784Z,9.30
2023-05-08T05:51:49.573Z,9.50
2023-05-08T05:54:21.791Z,9.70
2023-05-08T05:56:54.349Z,9.00
2023-05-08T05:59:26.407Z,8.50
2023-05-08T06:01:59.387Z,7.80
2023-05-08T06:04:31.514Z,5.90
2023-05-08T06:07:03.470Z,6.10
2023-05-08T06:09:36.588Z,5.60
2023-05-08T06:12:08.545Z,6.40
2023-05-08T06:14:40.828Z,5.80
2023-05-08T06:19:44.087Z,5.90
2023-05-08T06:22:15.877Z,5.90
2023-05-08T06:24:48.113Z,6.60
2023-05-08T06:27:22.949Z,5.90
2023-05-08T06:29:55.325Z,6.30
2023-05-08T06:32:27.718Z,6.20
2023-05-08T06:34:59.468Z,6.70
2023-05-08T06:37:31.249Z,5.70
2023-05-08T06:40:12.258Z,4.00
2023-05-08T06:42:44.885Z,6.30
2023-05-08T06:45:17.091Z,5.50
2023-05-08T06:47:48.900Z,5.20
2023-05-08T06:50:21.764Z,5.30
2023-05-08T06:55:24.421Z,5.20
2023-05-08T06:57:56.269Z,5.50
2023-05-08T07:00:28.637Z,5.60
2023-05-08T07:03:00.426Z,5.20
2023-05-08T07:05:32.511Z,5.10
2023-05-08T07:08:04.414Z,4.60
2023-05-08T07:10:36.241Z,4.30
2023-05-08T07:13:08.078Z,5.10
2023-05-08T07:15:40.138Z,4.20
2023-05-08T07:18:11.967Z,5.10
2023-05-08T07:20:43.983Z,4.90
2023-05-08T07:23:16.680Z,3.50
2023-05-08T07:25:48.570Z,4.70
2023-05-08T07:28:20.446Z,4.50
2023-05-08T07:30:52.681Z,5.00
2023-05-08T07:33:24.509Z,4.60
2023-05-08T07:35:56.440Z,3.80
2023-05-08T07:38:28.346Z,5.60
2023-05-08T07:41:02.219Z,4.30
2023-05-08T07:43:34.395Z,4.80
2023-05-08T07:46:06.563Z,3.70
2023-05-08T07:48:38.421Z,4.80
2023-05-08T07:51:11.203Z,3.40
2023-05-08T07:56:13.268Z,4.80
2023-05-08T07:58:45.967Z,4.50
2023-05-08T08:01:18.369Z,4.90
2023-05-08T08:03:50.755Z,7.70
2023-05-08T08:06:22.783Z,5.40
2023-05-08T08:08:54.555Z,4.10
2023-05-08T08:11:26.353Z,4.70
2023-05-08T08:13:58.225Z,4.70
2023-05-08T08:16:33.524Z,4.80
2023-05-08T08:19:05.421Z,4.90
2023-05-08T08:21:37.357Z,3.50
2023-05-08T08:24:09.465Z,5.10
2023-05-08T08:26:41.216Z,5.30
2023-05-08T08:29:13.042Z,5.20
2023-05-08T08:31:44.914Z,4.70
2023-05-08T08:34:16.889Z,5.30
2023-05-08T08:36:48.660Z,4.90
2023-05-08T08:39:20.835Z,4.90
2023-05-08T08:41:52.786Z,5.20
2023-05-08T08:44:24.776Z,5.60
2023-05-08T08:46:59.096Z,5.50
2023-05-08T08:49:35.945Z,4.50
2023-05-08T08:52:13.122Z,6.50
2023-05-08T08:54:47.944Z,5.30
2023-05-08T08:57:21.254Z,5.30
2023-05-08T08:59:54.320Z,4.80
2023-05-08T09:02:27.829Z,5.50
2023-05-08T09:05:18.946Z,5.10
2023-05-08T09:07:51.543Z,4.80
2023-05-08T09:10:24.733Z,5.00
2023-05-08T09:12:56.855Z,5.30
2023-05-08T09:15:28.728Z,5.70
2023-05-08T09:18:01.796Z,5.60
2023-05-08T09:20:33.646Z,5.00
2023-05-08T09:23:05.497Z,5.00
2023-05-08T09:25:47.969Z,5.90
2023-05-08T09:28:20.663Z,6.20
2023-05-08T09:33:25.303Z,5.10
2023-05-08T09:35:58.099Z,5.50
2023-05-08T09:38:40.687Z,5.20
2023-05-08T09:41:15.679Z,4.70
2023-05-08T09:44:02.978Z,4.40
2023-05-08T09:46:35.818Z,4.70
2023-05-08T09:51:38.127Z,4.30
2023-05-08T09:54:19.608Z,5.00
2023-05-08T09:56:52.940Z,4.00
2023-05-08T09:59:30.780Z,4.60
2023-05-08T10:02:16.249Z,4.40
2023-05-08T10:04:48.293Z,4.00
2023-05-08T10:07:30.545Z,3.00
2023-05-08T10:10:04.295Z,4.50
2023-05-08T10:12:38.026Z,4.60
2023-05-08T10:15:12.106Z,4.70
2023-05-08T10:17:54.183Z,4.90
2023-05-08T10:20:30.275Z,4.00
2023-05-08T10:23:03.430Z,4.10
2023-05-08T10:25:37.235Z,4.70
2023-05-08T10:28:25.546Z,4.60
2023-05-08T10:31:00.807Z,4.80
2023-05-08T10:33:35.804Z,4.30
2023-05-08T10:36:09.978Z,3.70
2023-05-08T10:38:42.379Z,5.10
2023-05-08T10:41:16.598Z,4.70
2023-05-08T10:43:49.681Z,4.40
2023-05-08T10:46:29.608Z,4.90
2023-05-08T10:49:14.045Z,5.60
2023-05-08T10:51:54.690Z,5.70
2023-05-08T10:54:35.143Z,5.10
2023-05-08T10:57:14.092Z,4.60
2023-05-08T10:59:49.159Z,5.30
2023-05-08T11:02:30.337Z,4.70
2023-05-08T11:08:01.236Z,5.60
2023-05-08T11:10:36.985Z,5.10
2023-05-08T11:13:09.695Z,4.50
2023-05-08T11:18:12.692Z,4.90
2023-05-08T11:20:56.105Z,4.90
2023-05-08T11:23:29.247Z,5.60
2023-05-08T11:26:06.051Z,5.80
2023-05-08T11:28:41.747Z,4.70
2023-05-08T11:31:13.519Z,4.60
2023-05-08T11:33:45.202Z,5.10
2023-05-08T11:36:20.931Z,5.10
2023-05-08T11:39:12.649Z,4.80
2023-05-08T11:41:44.373Z,5.20
2023-05-08T11:44:23.607Z,5.20
2023-05-08T11:46:58.510Z,4.80
2023-05-08T11:49:30.390Z,4.10
2023-05-08T11:52:04.253Z,4.50
2023-05-08T11:54:35.997Z,4.60
2023-05-08T11:57:07.749Z,5.00
2023-05-08T11:59:43.588Z,5.60
2023-05-08T12:02:15.404Z,5.00
2023-05-08T12:04:48.635Z,4.70
2023-05-08T12:07:20.674Z,4.50
2023-05-08T12:09:52.828Z,4.70
2023-05-08T12:12:24.651Z,4.80
2023-05-08T12:14:56.811Z,4.50
2023-05-08T12:17:28.448Z,5.00
2023-05-08T12:20:10.237Z,4.50
2023-05-08T12:22:43.059Z,4.00
2023-05-08T12:25:15.138Z,4.70
2023-05-08T12:27:47.754Z,4.60
2023-05-08T12:30:20.252Z,4.70
2023-05-08T12:32:52.512Z,5.30
2023-05-08T12:35:25.090Z,5.00
2023-05-08T12:38:01.493Z,4.70
2023-05-08T12:40:35.315Z,4.30
2023-05-08T12:43:07.240Z,4.60
2023-05-08T12:45:43.674Z,3.30
2023-05-08T12:48:16.909Z,4.10
2023-05-08T12:50:49.071Z,4.30
2023-05-08T12:53:22.768Z,4.30
2023-05-08T12:55:56.936Z,5.00
2023-05-08T12:58:30.518Z,3.90
2023-05-08T13:01:12.982Z,4.60
2023-05-08T13:03:47.094Z,4.00
2023-05-08T13:06:25.637Z,3.90
2023-05-08T13:08:57.725Z,3.80
2023-05-08T13:11:34.380Z,4.50
2023-05-08T13:14:06.203Z,4.10
2023-05-08T13:16:46.247Z,4.00
2023-05-08T13:19:18.919Z,4.60
2023-05-08T13:21:53.497Z,4.10
2023-05-08T13:24:25.849Z,3.80
2023-05-08T13:29:28.419Z,4.00
2023-05-08T13:32:00.419Z,4.30
2023-05-08T13:34:32.230Z,4.30
2023-05-08T13:37:04.183Z,4.00
2023-05-08T13:39:37.448Z,4.10
2023-05-08T13:42:09.242Z,4.10
2023-05-08T13:44:40.970Z,3.80
2023-05-08T13:47:12.760Z,3.70
2023-05-08T13:49:46.941Z,4.00
2023-05-08T13:52:18.881Z,4.00
2023-05-08T13:54:50.876Z,4.30
2023-05-08T13:57:22.788Z,4.40
2023-05-08T13:59:54.758Z,3.70
2023-05-08T14:02:26.744Z,4.20
2023-05-08T14:04:58.876Z,3.70
2023-05-08T14:07:31.010Z,4.20
2023-05-08T14:10:03.073Z,3.60
2023-05-08T14:12:36.642Z,3.80
2023-05-08T14:15:11.923Z,3.90
2023-05-08T14:17:44.543Z,4.20
2023-05-08T14:20:16.533Z,4.10
2023-05-08T14:22:48.498Z,3.70
2023-05-08T14:25:20.966Z,3.90
2023-05-08T14:27:52.667Z,3.70
2023-05-08T14:30:25.045Z,3.80
2023-05-08T14:32:56.925Z,4.10
2023-05-08T14:35:28.887Z,3.50
2023-05-08T14:38:01.008Z,4.20
2023-05-08T14:40:33.097Z,4.70
2023-05-08T14:43:04.881Z,4.10
2023-05-08T14:45:37.399Z,4.40
2023-05-08T14:48:09.590Z,3.90
2023-05-08T14:53:12.382Z,3.60
2023-05-08T14:55:44.753Z,3.80
2023-05-08T14:58:17.041Z,4.00
2023-05-08T15:00:49.176Z,3.50
2023-05-08T15:03:21.090Z,3.90
2023-05-08T15:05:52.999Z,3.60
2023-05-08T15:08:25.594Z,3.70
2023-05-08T15:10:57.363Z,3.70
2023-05-08T15:13:29.390Z,3.40
2023-05-08T15:16:01.458Z,3.70
2023-05-08T15:18:33.285Z,3.90
2023-05-08T15:21:05.472Z,3.30
2023-05-08T15:23:37.400Z,3.80
2023-05-08T15:26:09.440Z,4.30
2023-05-08T15:28:42.620Z,3.90
2023-05-08T15:31:14.728Z,3.80
2023-05-08T15:33:48.217Z,3.90
2023-05-08T15:36:20.740Z,3.40
2023-05-08T15:38:53.917Z,3.30
2023-05-08T15:41:26.083Z,3.50
2023-05-08T15:43:58.229Z,3.60
2023-05-08T15:46:30.267Z,3.40
2023-05-08T15:49:02.976Z,4.10
2023-05-08T15:51:35.368Z,3.80
2023-05-08T15:54:07.611Z,3.50
2023-05-08T15:56:39.664Z,3.70
2023-05-08T15:59:11.944Z,3.10
2023-05-08T16:01:44.161Z,3.70
2023-05-08T16:04:16.532Z,3.40
2023-05-08T16:06:48.375Z,3.10
2023-05-08T16:09:20.121Z,3.50
2023-05-08T16:11:51.952Z,3.40
2023-05-08T16:14:23.762Z,3.60
2023-05-08T16:16:55.841Z,3.90
2023-05-08T16:19:27.878Z,3.60
2023-05-08T16:22:00.043Z,4.00
2023-05-08T16:24:33.333Z,4.00
2023-05-08T16:27:05.428Z,3.70
2023-05-08T16:29:38.210Z,3.80
2023-05-08T16:32:10.168Z,4.20
2023-05-08T16:34:42.193Z,4.90
2023-05-08T16:37:14.251Z,3.90
2023-05-08T16:39:45.946Z,3.90
2023-05-08T16:42:18.963Z,3.30
2023-05-08T16:44:51.508Z,3.70
2023-05-08T16:47:23.584Z,4.10
2023-05-08T16:49:55.600Z,4.10
2023-05-08T16:52:27.499Z,3.50
2023-05-08T16:54:59.553Z,3.80
2023-05-08T16:57:31.580Z,4.20
2023-05-08T17:00:04.655Z,4.60
2023-05-08T17:02:36.816Z,3.90
2023-05-08T17:05:09.944Z,4.10
2023-05-08T17:07:41.812Z,4.50
2023-05-08T17:10:14.043Z,3.60
2023-05-08T17:12:45.929Z,4.00
2023-05-08T17:15:17.804Z,3.60
2023-05-08T17:17:50.407Z,3.80
2023-05-08T17:22:53.805Z,4.20
2023-05-08T17:25:25.928Z,4.60
2023-05-08T17:27:58.567Z,4.20
2023-05-08T17:33:03.679Z,14.50
2023-05-08T17:35:35.528Z,4.30
2023-05-08T17:38:07.219Z,4.70
2023-05-08T17:40:39.992Z,4.70
2023-05-08T17:43:12.421Z,11.60
2023-05-08T17:45:45.560Z,9.00
2023-05-08T17:48:17.435Z,7.40
2023-05-08T17:50:50.213Z,7.10
2023-05-08T17:53:22.052Z,11.00
2023-05-08T17:55:54.780Z,7.30
2023-05-08T17:58:26.831Z,6.10
2023-05-08T18:00:58.953Z,6.90
2023-05-08T18:03:31.836Z,5.70
2023-05-08T18:06:03.879Z,6.10
2023-05-08T18:08:35.791Z,5.90
2023-05-08T18:11:07.900Z,6.50
2023-05-08T18:13:40.129Z,4.90
2023-05-08T18:16:11.909Z,4.70
2023-05-08T18:18:43.832Z,4.50
2023-05-08T18:21:15.717Z,5.20
2023-05-08T18:23:47.607Z,4.90
2023-05-08T18:26:19.710Z,3.90
2023-05-08T18:28:51.623Z,5.10
2023-05-08T18:31:23.645Z,4.70
2023-05-08T18:33:55.395Z,4.90
2023-05-08T18:36:28.010Z,4.90
2023-05-08T18:39:00.062Z,5.40
2023-05-08T18:41:31.798Z,5.70
2023-05-08T18:44:05.134Z,5.30
2023-05-08T18:46:37.107Z,5.60
2023-05-08T18:49:09.229Z,5.90
2023-05-08T18:51:42.002Z,4.30
2023-05-08T18:54:13.866Z,6.30
2023-05-08T18:56:45.996Z,6.40
2023-05-08T18:59:17.720Z,6.10
2023-05-08T19:01:51.023Z,6.30
2023-05-08T19:04:22.909Z,6.50
2023-05-08T19:06:54.799Z,5.90
2023-05-08T19:09:27.121Z,5.80
2023-05-08T19:11:59.453Z,6.80
2023-05-08T19:14:31.271Z,6.10
2023-05-08T19:17:03.125Z,6.30
2023-05-08T19:19:35.124Z,6.60
2023-05-08T19:22:07.188Z,6.20
2023-05-08T19:24:39.767Z,6.80
2023-05-08T19:27:11.581Z,7.40
2023-05-08T19:29:43.498Z,8.00
2023-05-08T19:32:15.245Z,8.40
2023-05-08T19:34:47.075Z,8.70
2023-05-08T19:37:19.098Z,8.20
2023-05-08T19:39:53.866Z,8.30
2023-05-08T19:42:25.893Z,9.20
2023-05-08T19:44:57.653Z,8.50
2023-05-08T19:47:29.487Z,8.90
2023-05-08T19:50:01.321Z,8.70
2023-05-08T19:52:33.359Z,8.00
2023-05-08T19:55:05.439Z,8.90
2023-05-08T19:57:37.507Z,8.50
2023-05-08T20:00:11.255Z,9.20
2023-05-08T20:02:43.370Z,9.10
2023-05-08T20:05:22.411Z,5.50
2023-05-08T20:07:55.030Z,8.40
2023-05-08T20:10:27.312Z,8.90
2023-05-08T20:12:59.141Z,8.60
2023-05-08T20:15:31.049Z,8.30
2023-05-08T20:18:03.076Z,8.70
2023-05-08T20:20:35.444Z,9.10
2023-05-08T20:23:07.257Z,9.10
2023-05-08T20:25:38.981Z,9.60
2023-05-08T20:28:10.730Z,9.30
2023-05-08T20:30:42.945Z,9.10
2023-05-08T20:33:14.679Z,9.60
2023-05-08T20:35:46.763Z,9.10
2023-05-08T20:38:18.975Z,8.60
2023-05-08T20:40:51.203Z,9.50
2023-05-08T20:43:22.917Z,9.80
2023-05-08T20:45:54.738Z,10.30
2023-05-08T20:48:26.549Z,9.70
2023-05-08T20:50:58.432Z,9.80
2023-05-08T20:53:30.496Z,9.90
2023-05-08T20:56:06.541Z,10.80
2023-05-08T20:58:39.141Z,10.40
2023-05-08T21:01:12.053Z,9.90
2023-05-08T21:03:43.834Z,9.60
2023-05-08T21:06:15.876Z,10.40
2023-05-08T21:08:47.838Z,10.00
2023-05-08T21:11:19.613Z,11.20
2023-05-08T21:13:51.374Z,10.40
2023-05-08T21:16:24.841Z,9.60
2023-05-08T21:18:58.535Z,9.60
2023-05-08T21:21:30.489Z,9.50
2023-05-08T21:24:02.676Z,9.80
2023-05-08T21:26:34.490Z,9.70
2023-05-08T21:29:07.294Z,10.20
2023-05-08T21:34:09.580Z,10.40
2023-05-08T21:36:42.085Z,11.00
2023-05-08T21:39:14.524Z,10.90
2023-05-08T21:41:46.968Z,9.80
2023-05-08T21:44:18.738Z,11.10
2023-05-08T21:46:50.776Z,10.90
2023-05-08T21:49:22.655Z,9.60
2023-05-08T21:51:54.761Z,9.00
2023-05-08T21:54:26.533Z,9.50
2023-05-08T21:56:58.243Z,10.00
2023-05-08T21:59:30.230Z,10.70
2023-05-08T22:02:02.925Z,10.40
2023-05-08T22:04:34.843Z,11.00
2023-05-08T22:07:06.604Z,10.80
2023-05-08T22:09:38.334Z,10.60
2023-05-08T22:12:11.274Z,10.20
2023-05-08T22:14:43.035Z,10.80
2023-05-08T22:17:14.803Z,10.80
2023-05-08T22:19:46.554Z,10.80
2023-05-08T22:22:18.421Z,10.60
2023-05-08T22:24:50.201Z,11.00
2023-05-08T22:27:21.911Z,11.60
2023-05-08T22:29:53.626Z,11.40
2023-05-08T22:32:25.439Z,11.80
2023-05-08T22:34:57.198Z,11.50
2023-05-08T22:37:30.059Z,12.50
2023-05-08T22:40:02.010Z,10.80
2023-05-08T22:42:33.751Z,9.20
2023-05-08T22:45:06.134Z,11.30
2023-05-08T22:47:38.339Z,11.70
2023-05-08T22:50:11.772Z,11.60
2023-05-08T22:52:44.042Z,12.40
2023-05-08T22:55:16.806Z,12.10
2023-05-08T22:57:48.861Z,11.70
2023-05-08T23:00:21.795Z,12.60
2023-05-08T23:05:24.530Z,13.00
2023-05-08T23:07:56.265Z,13.40
2023-05-08T23:10:27.909Z,11.80
2023-05-08T23:13:00.039Z,12.60
2023-05-08T23:15:32.192Z,13.10
2023-05-08T23:18:04.359Z,12.80
2023-05-08T23:20:36.358Z,13.00
2023-05-08T23:23:08.169Z,12.10
2023-05-08T23:25:39.858Z,12.40
2023-05-08T23:28:11.920Z,13.30
2023-05-08T23:30:43.641Z,10.00
2023-05-08T23:33:15.749Z,13.30
2023-05-08T23:35:47.469Z,13.00
2023-05-08T23:38:19.509Z,13.20
2023-05-08T23:40:51.270Z,13.10
2023-05-08T23:43:22.968Z,14.40
2023-05-08T23:45:54.647Z,14.40
2023-05-08T23:48:26.507Z,14.30
2023-05-08T23:50:58.543Z,13.90
2023-05-08T23:53:30.621Z,14.00
2023-05-08T23:56:02.429Z,13.60
2023-05-08T23:58:34.145Z,13.10
